createdAt,value
2023-04-25T00:02:15.884Z,4.97
2023-04-25T00:04:44.787Z,5.07
2023-04-25T00:07:12.739Z,5.33
2023-04-25T00:09:40.497Z,5.73
2023-04-25T00:12:09.880Z,4.70
2023-04-25T00:14:38.041Z,5.33
2023-04-25T00:17:06.831Z,5.77
2023-04-25T00:19:35.814Z,5.63
2023-04-25T00:22:03.671Z,4.93
2023-04-25T00:24:31.455Z,5.10
2023-04-25T00:26:59.253Z,5.37
2023-04-25T00:29:28.447Z,5.63
2023-04-25T00:31:56.305Z,5.57
2023-04-25T00:34:24.063Z,4.60
2023-04-25T00:36:51.884Z,5.10
2023-04-25T00:39:19.678Z,5.17
2023-04-25T00:41:47.604Z,5.27
2023-04-25T00:44:15.824Z,5.17
2023-04-25T00:46:45.075Z,5.00
2023-04-25T00:49:16.482Z,5.47
2023-04-25T00:51:45.031Z,5.10
2023-04-25T00:54:13.300Z,5.07
2023-04-25T00:56:41.519Z,5.43
2023-04-25T00:59:09.524Z,5.17
2023-04-25T01:01:38.780Z,5.87
2023-04-25T01:04:08.089Z,5.70
2023-04-25T01:06:37.351Z,5.67
2023-04-25T01:09:06.726Z,5.40
2023-04-25T01:11:34.484Z,5.13
2023-04-25T01:14:03.674Z,5.30
2023-04-25T01:16:31.591Z,5.73
2023-04-25T01:18:59.693Z,5.37
2023-04-25T01:21:30.810Z,5.70
2023-04-25T01:23:59.028Z,5.27
2023-04-25T01:26:27.115Z,5.23
2023-04-25T01:28:56.074Z,5.73
2023-04-25T01:31:24.054Z,5.53
2023-04-25T01:33:52.504Z,5.30
2023-04-25T01:36:20.637Z,5.43
2023-04-25T01:38:49.975Z,5.10
2023-04-25T01:41:18.878Z,5.90
2023-04-25T01:43:46.881Z,6.07
2023-04-25T01:46:14.790Z,5.20
2023-04-25T01:48:42.679Z,5.33
2023-04-25T01:51:12.575Z,5.60
2023-04-25T01:53:40.553Z,5.50
2023-04-25T01:56:09.903Z,4.93
2023-04-25T01:58:37.691Z,5.10
2023-04-25T02:01:05.681Z,5.10
2023-04-25T02:03:34.826Z,5.23
2023-04-25T02:06:02.750Z,4.83
2023-04-25T02:08:31.236Z,5.20
2023-04-25T02:10:59.019Z,5.03
2023-04-25T02:13:28.240Z,5.40
2023-04-25T02:15:56.374Z,5.20
2023-04-25T02:18:24.214Z,5.33
2023-04-25T02:20:51.955Z,5.27
2023-04-25T02:23:20.125Z,4.70
2023-04-25T02:25:48.021Z,5.23
2023-04-25T02:28:17.230Z,5.17
2023-04-25T02:30:46.410Z,5.43
2023-04-25T02:33:14.191Z,5.40
2023-04-25T02:35:41.930Z,5.13
2023-04-25T02:38:09.743Z,4.53
2023-04-25T02:40:37.675Z,5.07
2023-04-25T02:43:05.480Z,4.93
2023-04-25T02:45:33.349Z,4.50
2023-04-25T02:48:03.527Z,5.07
2023-04-25T02:50:31.528Z,4.00
2023-04-25T02:52:59.239Z,4.60
2023-04-25T02:55:28.477Z,4.07
2023-04-25T02:57:57.347Z,4.40
2023-04-25T03:00:25.156Z,4.23
2023-04-25T03:02:53.647Z,4.60
2023-04-25T03:05:22.925Z,3.90
2023-04-25T03:07:50.724Z,4.57
2023-04-25T03:10:18.544Z,4.43
2023-04-25T03:12:46.429Z,3.70
2023-04-25T03:15:14.476Z,3.50
2023-04-25T03:17:42.304Z,3.87
2023-04-25T03:20:11.639Z,3.57
2023-04-25T03:22:40.766Z,3.20
2023-04-25T03:25:09.525Z,3.17
2023-04-25T03:27:37.280Z,3.43
2023-04-25T03:30:05.766Z,2.80
2023-04-25T03:32:33.694Z,3.40
2023-04-25T03:35:01.543Z,3.30
2023-04-25T03:37:29.313Z,3.10
2023-04-25T03:39:58.402Z,2.90
2023-04-25T03:42:26.252Z,2.80
2023-04-25T03:44:54.291Z,2.80
2023-04-25T03:47:22.223Z,3.10
2023-04-25T03:49:52.778Z,2.90
2023-04-25T03:52:20.832Z,3.30
2023-04-25T03:54:48.624Z,3.77
2023-04-25T03:57:17.828Z,3.07
2023-04-25T03:59:45.781Z,3.43
2023-04-25T04:02:13.745Z,3.00
2023-04-25T04:04:41.791Z,3.57
2023-04-25T04:07:10.810Z,3.17
2023-04-25T04:09:40.750Z,3.37
2023-04-25T04:12:08.878Z,3.83
2023-04-25T04:14:37.991Z,3.80
2023-04-25T04:17:06.957Z,3.90
2023-04-25T04:19:34.687Z,3.80
2023-04-25T04:22:02.731Z,4.07
2023-04-25T04:24:30.491Z,3.77
2023-04-25T04:26:58.826Z,3.80
2023-04-25T04:29:26.646Z,3.00
2023-04-25T04:31:56.126Z,3.37
2023-04-25T04:34:25.762Z,2.87
2023-04-25T04:36:53.643Z,3.33
2023-04-25T04:39:21.491Z,3.67
2023-04-25T04:41:49.249Z,2.80
2023-04-25T04:44:17.116Z,2.90
2023-04-25T04:46:45.595Z,2.90
2023-04-25T04:49:16.047Z,2.80
2023-04-25T04:51:45.483Z,3.20
2023-04-25T04:54:13.330Z,3.10
2023-04-25T04:56:41.293Z,3.33
2023-04-25T04:59:09.325Z,2.93
2023-04-25T05:01:37.297Z,2.80
2023-04-25T05:04:05.342Z,3.20
2023-04-25T05:06:34.536Z,2.80
2023-04-25T05:09:02.352Z,2.93
2023-04-25T05:11:30.052Z,3.10
2023-04-25T05:13:57.902Z,3.13
2023-04-25T05:16:26.638Z,3.10
2023-04-25T05:18:54.532Z,3.70
2023-04-25T05:21:22.627Z,3.30
2023-04-25T05:23:51.955Z,3.23
2023-04-25T05:26:19.856Z,3.20
2023-04-25T05:28:47.670Z,2.80
2023-04-25T05:31:15.459Z,3.30
2023-04-25T05:33:43.221Z,2.90
2023-04-25T05:36:11.223Z,2.67
2023-04-25T05:38:38.951Z,2.30
2023-04-25T05:41:08.432Z,2.80
2023-04-25T05:43:36.223Z,2.43
2023-04-25T05:46:04.256Z,2.30
2023-04-25T05:48:32.194Z,2.23
2023-04-25T05:50:59.974Z,2.43
2023-04-25T05:53:27.811Z,2.70
2023-04-25T05:55:55.816Z,2.60
2023-04-25T05:58:25.088Z,2.43
2023-04-25T06:00:52.920Z,2.43
2023-04-25T06:03:21.498Z,2.60
2023-04-25T06:05:49.589Z,2.50
2023-04-25T06:08:17.340Z,2.43
2023-04-25T06:10:45.244Z,2.77
2023-04-25T06:13:13.444Z,2.93
2023-04-25T06:15:42.622Z,2.57
2023-04-25T06:18:10.679Z,2.63
2023-04-25T06:20:38.541Z,2.80
2023-04-25T06:23:06.335Z,2.30
2023-04-25T06:25:34.119Z,2.60
2023-04-25T06:28:01.875Z,2.63
2023-04-25T06:30:29.641Z,2.63
2023-04-25T06:32:58.822Z,2.73
2023-04-25T06:35:26.797Z,2.30
2023-04-25T06:37:54.606Z,2.60
2023-04-25T06:40:22.477Z,2.80
2023-04-25T06:42:50.337Z,2.40
2023-04-25T06:45:18.290Z,2.50
2023-04-25T06:47:53.839Z,2.10
2023-04-25T06:50:23.234Z,2.43
2023-04-25T06:52:51.566Z,2.17
2023-04-25T06:55:19.844Z,2.20
2023-04-25T06:57:47.746Z,2.30
2023-04-25T07:00:16.655Z,2.30
2023-04-25T07:02:46.858Z,2.13
2023-04-25T07:05:14.759Z,2.10
2023-04-25T07:07:44.001Z,1.93
2023-04-25T07:10:12.059Z,2.20
2023-04-25T07:12:39.819Z,1.87
2023-04-25T07:15:11.060Z,2.10
2023-04-25T07:17:39.143Z,2.10
2023-04-25T07:20:08.793Z,2.07
2023-04-25T07:22:36.498Z,2.00
2023-04-25T07:25:06.662Z,2.50
2023-04-25T07:27:36.669Z,2.40
2023-04-25T07:30:06.264Z,2.47
2023-04-25T07:32:34.006Z,2.17
2023-04-25T07:35:02.750Z,2.57
2023-04-25T07:37:30.509Z,1.90
2023-04-25T07:39:58.280Z,2.03
2023-04-25T07:42:27.444Z,2.10
2023-04-25T07:44:55.395Z,1.90
2023-04-25T07:47:23.165Z,1.90
2023-04-25T07:49:51.257Z,1.87
2023-04-25T07:52:19.009Z,2.20
2023-04-25T07:54:49.218Z,2.93
2023-04-25T07:57:19.478Z,2.80
2023-04-25T07:59:48.950Z,2.83
2023-04-25T08:02:16.783Z,2.57
2023-04-25T08:04:44.756Z,2.80
2023-04-25T08:07:12.657Z,1.97
2023-04-25T08:09:40.409Z,1.60
2023-04-25T08:12:08.387Z,1.50
2023-04-25T08:14:40.781Z,1.53
2023-04-25T08:17:09.887Z,1.40
2023-04-25T08:19:37.754Z,1.70
2023-04-25T08:22:05.574Z,2.60
2023-04-25T08:24:33.285Z,2.17
2023-04-25T08:27:01.613Z,2.10
2023-04-25T08:29:29.536Z,2.10
2023-04-25T08:31:57.810Z,2.03
2023-04-25T08:34:28.613Z,1.70
2023-04-25T08:36:56.398Z,1.50
2023-04-25T08:39:24.128Z,1.87
2023-04-25T08:41:53.673Z,1.60
2023-04-25T08:44:21.854Z,1.60
2023-04-25T08:46:51.418Z,1.20
2023-04-25T08:49:19.965Z,1.40
2023-04-25T08:51:52.659Z,1.17
2023-04-25T08:54:35.601Z,1.20
2023-04-25T08:57:05.145Z,1.10
2023-04-25T08:59:34.317Z,1.50
2023-04-25T09:02:03.174Z,1.20
2023-04-25T09:04:32.729Z,1.30
2023-04-25T09:07:01.913Z,1.37
2023-04-25T09:09:29.705Z,1.20
2023-04-25T09:11:57.489Z,1.30
2023-04-25T09:14:27.746Z,1.10
2023-04-25T09:17:03.497Z,1.20
2023-04-25T09:22:06.348Z,1.10
2023-04-25T09:24:35.473Z,1.20
2023-04-25T09:27:05.608Z,1.20
2023-04-25T09:29:33.989Z,1.43
2023-04-25T09:32:18.567Z,1.30
2023-04-25T09:34:49.373Z,1.10
2023-04-25T09:37:22.665Z,1.23
2023-04-25T09:39:51.719Z,1.40
2023-04-25T09:42:19.940Z,1.50
2023-04-25T09:44:48.769Z,1.50
2023-04-25T09:47:17.455Z,1.90
2023-04-25T09:49:45.794Z,2.23
2023-04-25T09:52:16.851Z,2.20
2023-04-25T09:54:46.381Z,2.40
2023-04-25T09:57:15.561Z,2.20
2023-04-25T09:59:46.851Z,2.50
2023-04-25T10:02:18.528Z,2.10
2023-04-25T10:04:48.546Z,2.00
2023-04-25T10:07:16.659Z,2.17
2023-04-25T10:09:48.708Z,2.13
2023-04-25T10:12:16.658Z,2.20
2023-04-25T10:14:44.654Z,2.27
2023-04-25T10:17:13.428Z,2.60
2023-04-25T10:19:42.538Z,2.80
2023-04-25T10:22:14.066Z,2.70
2023-04-25T10:24:43.082Z,2.80
2023-04-25T10:27:13.057Z,2.77
2023-04-25T10:29:41.072Z,2.50
2023-04-25T10:32:08.853Z,2.13
2023-04-25T10:34:43.834Z,2.20
2023-04-25T10:37:13.292Z,2.00
2023-04-25T10:39:44.414Z,1.70
2023-04-25T10:42:14.014Z,1.70
2023-04-25T10:44:45.144Z,1.80
2023-04-25T10:47:13.309Z,1.90
2023-04-25T10:49:44.323Z,1.80
2023-04-25T10:52:20.303Z,1.83
2023-04-25T10:54:53.808Z,2.13
2023-04-25T10:57:39.291Z,2.13
2023-04-25T11:00:13.639Z,2.47
2023-04-25T11:02:47.936Z,3.47
2023-04-25T11:05:25.129Z,4.13
2023-04-25T11:08:06.602Z,3.30
2023-04-25T11:10:37.232Z,3.17
2023-04-25T11:13:06.504Z,3.00
2023-04-25T11:15:34.663Z,2.50
2023-04-25T11:18:03.119Z,2.40
2023-04-25T11:20:31.900Z,2.10
2023-04-25T11:25:35.566Z,1.93
2023-04-25T11:28:06.954Z,2.13
2023-04-25T11:30:34.718Z,3.30
2023-04-25T11:33:04.175Z,2.80
2023-04-25T11:35:34.463Z,2.67
2023-04-25T11:38:02.394Z,2.30
2023-04-25T11:40:31.071Z,2.10
2023-04-25T11:43:02.290Z,1.90
2023-04-25T11:45:32.109Z,1.60
2023-04-25T11:47:59.992Z,1.70
2023-04-25T11:50:30.649Z,1.70
2023-04-25T11:52:59.364Z,1.87
2023-04-25T11:55:27.469Z,1.57
2023-04-25T11:57:56.576Z,1.67
2023-04-25T12:00:25.679Z,1.37
2023-04-25T12:02:56.317Z,1.70
2023-04-25T12:05:32.784Z,1.30
2023-04-25T12:08:13.042Z,1.50
2023-04-25T12:10:42.885Z,1.40
2023-04-25T12:13:21.908Z,1.20
2023-04-25T12:15:49.999Z,1.20
2023-04-25T12:18:21.882Z,1.30
2023-04-25T12:20:49.783Z,1.10
2023-04-25T12:23:17.506Z,1.23
2023-04-25T12:25:48.190Z,1.10
2023-04-25T12:28:20.581Z,1.27
2023-04-25T12:30:56.895Z,1.20
2023-04-25T12:33:26.110Z,1.13
2023-04-25T12:35:54.802Z,1.20
2023-04-25T12:38:24.082Z,1.10
2023-04-25T12:40:51.780Z,1.20
2023-04-25T12:43:19.790Z,1.30
2023-04-25T12:45:50.097Z,1.10
2023-04-25T12:48:18.012Z,1.07
2023-04-25T12:50:49.822Z,1.10
2023-04-25T12:53:18.062Z,1.10
2023-04-25T12:55:47.722Z,1.13
2023-04-25T12:58:17.498Z,0.90
2023-04-25T13:00:45.382Z,0.90
2023-04-25T13:03:13.981Z,0.90
2023-04-25T13:05:42.323Z,0.90
2023-04-25T13:08:11.504Z,0.80
2023-04-25T13:10:40.341Z,1.00
2023-04-25T13:13:08.366Z,1.00
2023-04-25T13:15:36.346Z,1.00
2023-04-25T13:18:04.770Z,1.00
2023-04-25T13:20:32.555Z,1.10
2023-04-25T13:23:02.407Z,0.97
2023-04-25T13:25:31.973Z,0.90
2023-04-25T13:28:01.772Z,1.10
2023-04-25T13:30:29.515Z,1.10
2023-04-25T13:32:58.328Z,0.90
2023-04-25T13:35:26.868Z,0.80
2023-04-25T13:37:54.892Z,0.90
2023-04-25T13:40:24.699Z,0.90
2023-04-25T13:42:54.778Z,1.20
2023-04-25T13:45:22.821Z,1.00
2023-04-25T13:47:51.005Z,0.80
2023-04-25T13:50:19.195Z,0.87
2023-04-25T13:52:47.130Z,0.90
2023-04-25T13:55:15.002Z,0.90
2023-04-25T13:57:43.006Z,0.80
2023-04-25T14:00:14.986Z,0.90
2023-04-25T14:02:43.940Z,0.90
2023-04-25T14:05:11.816Z,0.80
2023-04-25T14:07:39.774Z,0.70
2023-04-25T14:10:08.613Z,0.87
2023-04-25T14:12:36.573Z,1.47
2023-04-25T14:15:04.967Z,1.40
2023-04-25T14:17:34.127Z,1.10
2023-04-25T14:20:03.315Z,0.97
2023-04-25T14:22:31.287Z,0.80
2023-04-25T14:24:59.156Z,1.00
2023-04-25T14:27:29.131Z,1.20
2023-04-25T14:29:57.116Z,1.00
2023-04-25T14:32:25.176Z,0.90
2023-04-25T14:34:54.393Z,1.23
2023-04-25T14:37:22.225Z,0.90
2023-04-25T14:39:50.091Z,0.80
2023-04-25T14:42:17.931Z,0.90
2023-04-25T14:44:46.020Z,0.90
2023-04-25T14:47:14.039Z,0.90
2023-04-25T14:49:42.523Z,0.80
2023-04-25T14:52:13.960Z,1.00
2023-04-25T14:54:41.699Z,0.90
2023-04-25T14:57:09.507Z,1.00
2023-04-25T14:59:37.321Z,1.10
2023-04-25T15:02:05.163Z,0.93
2023-04-25T15:04:33.570Z,1.03
2023-04-25T15:07:02.130Z,0.87
2023-04-25T15:09:32.698Z,1.00
2023-04-25T15:12:00.693Z,0.90
2023-04-25T15:14:28.717Z,1.00
2023-04-25T15:16:56.669Z,0.90
2023-04-25T15:19:25.543Z,0.90
2023-04-25T15:21:53.390Z,0.80
2023-04-25T15:24:22.406Z,0.70
2023-04-25T15:26:51.658Z,0.70
2023-04-25T15:29:20.133Z,0.70
2023-04-25T15:31:47.975Z,0.90
2023-04-25T15:34:16.103Z,0.80
2023-04-25T15:36:43.894Z,0.80
2023-04-25T15:39:11.724Z,1.00
2023-04-25T15:41:39.835Z,1.10
2023-04-25T15:44:10.966Z,1.00
2023-04-25T15:46:39.472Z,1.17
2023-04-25T15:49:07.504Z,0.80
2023-04-25T15:51:36.605Z,0.80
2023-04-25T15:54:06.609Z,0.80
2023-04-25T15:56:34.425Z,0.87
2023-04-25T15:59:02.262Z,0.70
2023-04-25T16:01:31.553Z,0.73
2023-04-25T16:03:59.631Z,1.20
2023-04-25T16:06:28.496Z,1.23
2023-04-25T16:08:57.090Z,1.20
2023-04-25T16:11:24.963Z,0.93
2023-04-25T16:13:53.108Z,1.30
2023-04-25T16:16:21.611Z,1.07
2023-04-25T16:18:51.077Z,1.10
2023-04-25T16:21:18.789Z,1.10
2023-04-25T16:23:46.944Z,0.90
2023-04-25T16:26:14.898Z,1.10
2023-04-25T16:28:43.747Z,1.00
2023-04-25T16:31:11.521Z,0.93
2023-04-25T16:33:41.575Z,1.00
2023-04-25T16:36:12.936Z,1.37
2023-04-25T16:38:40.970Z,1.10
2023-04-25T16:41:09.109Z,1.20
2023-04-25T16:43:40.145Z,1.30
2023-04-25T16:46:09.485Z,1.53
2023-04-25T16:48:37.357Z,1.17
2023-04-25T16:51:05.261Z,1.30
2023-04-25T16:53:34.724Z,1.10
2023-04-25T16:56:02.732Z,1.37
2023-04-25T16:58:30.802Z,1.30
2023-04-25T17:00:58.867Z,1.40
2023-04-25T17:03:27.378Z,1.20
2023-04-25T17:05:56.806Z,1.40
2023-04-25T17:08:24.815Z,1.10
2023-04-25T17:10:55.621Z,1.50
2023-04-25T17:13:30.729Z,1.37
2023-04-25T17:15:59.299Z,1.27
2023-04-25T17:18:28.297Z,1.70
2023-04-25T17:20:56.379Z,2.10
2023-04-25T17:23:24.154Z,2.03
2023-04-25T17:25:52.224Z,1.60
2023-04-25T17:28:23.938Z,1.60
2023-04-25T17:30:52.325Z,1.50
2023-04-25T17:33:20.456Z,1.50
2023-04-25T17:35:49.729Z,1.50
2023-04-25T17:38:17.999Z,1.50
2023-04-25T17:40:45.831Z,1.47
2023-04-25T17:43:13.552Z,1.77
2023-04-25T17:45:43.199Z,1.60
2023-04-25T17:48:11.502Z,1.80
2023-04-25T17:50:41.198Z,1.50
2023-04-25T17:53:09.027Z,1.20
2023-04-25T17:55:36.724Z,1.50
2023-04-25T17:58:04.659Z,1.60
2023-04-25T18:00:33.626Z,1.20
2023-04-25T18:03:03.457Z,1.47
2023-04-25T18:05:32.764Z,1.60
2023-04-25T18:08:00.712Z,1.63
2023-04-25T18:10:28.590Z,1.40
2023-04-25T18:12:56.478Z,1.30
2023-04-25T18:15:25.035Z,1.60
2023-04-25T18:17:52.844Z,1.70
2023-04-25T18:20:23.314Z,2.03
2023-04-25T18:22:51.128Z,2.00
2023-04-25T18:25:18.926Z,2.20
2023-04-25T18:27:47.535Z,1.87
2023-04-25T18:30:15.605Z,2.10
2023-04-25T18:32:43.419Z,2.00
2023-04-25T18:35:12.220Z,1.80
2023-04-25T18:37:42.344Z,1.83
2023-04-25T18:40:13.878Z,1.77
2023-04-25T18:42:41.836Z,1.87
2023-04-25T18:45:10.760Z,2.00
2023-04-25T18:47:39.512Z,1.93
2023-04-25T18:50:09.146Z,2.00
2023-04-25T18:52:36.936Z,2.27
2023-04-25T18:55:07.274Z,2.30
2023-04-25T18:57:35.002Z,2.50
2023-04-25T19:00:05.640Z,2.60
2023-04-25T19:02:33.650Z,2.70
2023-04-25T19:05:01.502Z,3.10
2023-04-25T19:07:31.159Z,2.90
2023-04-25T19:10:03.288Z,3.53
2023-04-25T19:12:33.594Z,3.23
2023-04-25T19:15:01.640Z,3.10
2023-04-25T19:17:30.536Z,3.20
2023-04-25T19:19:58.559Z,2.90
2023-04-25T19:22:27.426Z,2.50
2023-04-25T19:25:03.068Z,2.50
2023-04-25T19:27:39.780Z,2.50
2023-04-25T19:30:09.395Z,2.60
2023-04-25T19:32:38.719Z,2.90
2023-04-25T19:35:10.940Z,2.57
2023-04-25T19:37:46.146Z,2.93
2023-04-25T19:40:16.017Z,2.80
2023-04-25T19:42:45.596Z,3.10
2023-04-25T19:45:13.756Z,3.03
2023-04-25T19:47:42.283Z,2.93
2023-04-25T19:50:11.056Z,3.33
2023-04-25T19:52:39.470Z,3.10
2023-04-25T19:55:08.529Z,2.97
2023-04-25T19:57:37.926Z,2.33
2023-04-25T20:00:10.813Z,2.67
2023-04-25T20:02:39.040Z,2.60
2023-04-25T20:05:08.112Z,2.30
2023-04-25T20:07:36.118Z,2.60
2023-04-25T20:10:06.603Z,2.20
2023-04-25T20:12:37.693Z,2.97
2023-04-25T20:15:08.698Z,2.70
2023-04-25T20:17:36.998Z,2.70
2023-04-25T20:20:06.484Z,2.23
2023-04-25T20:22:36.856Z,2.67
2023-04-25T20:25:05.467Z,2.90
2023-04-25T20:27:33.503Z,2.73
2023-04-25T20:30:04.760Z,2.90
2023-04-25T20:32:35.335Z,2.90
2023-04-25T20:35:03.850Z,2.50
2023-04-25T20:37:32.480Z,3.07
2023-04-25T20:40:00.340Z,2.73
2023-04-25T20:42:28.315Z,2.73
2023-04-25T20:44:56.216Z,3.10
2023-04-25T20:47:24.336Z,2.50
2023-04-25T20:49:53.476Z,2.63
2023-04-25T20:52:21.170Z,2.80
2023-04-25T20:54:50.501Z,2.47
2023-04-25T20:57:18.327Z,2.60
2023-04-25T20:59:45.985Z,2.20
2023-04-25T21:02:15.621Z,2.43
2023-04-25T21:04:44.181Z,2.30
2023-04-25T21:07:15.818Z,2.30
2023-04-25T21:09:45.526Z,2.17
2023-04-25T21:12:13.416Z,2.70
2023-04-25T21:14:41.126Z,2.37
2023-04-25T21:17:08.932Z,2.70
2023-04-25T21:19:36.694Z,2.80
2023-04-25T21:22:04.430Z,2.73
2023-04-25T21:24:33.898Z,2.50
2023-04-25T21:27:02.116Z,3.10
2023-04-25T21:29:30.055Z,3.00
2023-04-25T21:31:57.823Z,3.07
2023-04-25T21:34:25.606Z,3.10
2023-04-25T21:36:53.300Z,3.00
2023-04-25T21:39:21.091Z,3.07
2023-04-25T21:41:51.663Z,3.33
2023-04-25T21:44:19.511Z,3.43
2023-04-25T21:46:47.307Z,3.47
2023-04-25T21:49:15.378Z,3.10
2023-04-25T21:51:43.433Z,3.50
2023-04-25T21:54:11.401Z,3.80
2023-04-25T21:56:39.210Z,3.80
2023-04-25T21:59:08.343Z,3.37
2023-04-25T22:01:36.808Z,3.30
2023-04-25T22:04:04.859Z,3.00
2023-04-25T22:06:32.950Z,3.50
2023-04-25T22:09:00.854Z,3.30
2023-04-25T22:11:28.998Z,3.10
2023-04-25T22:13:56.756Z,3.20
2023-04-25T22:16:25.896Z,2.90
2023-04-25T22:18:53.966Z,3.00
2023-04-25T22:21:22.735Z,3.50
2023-04-25T22:23:51.956Z,3.53
2023-04-25T22:26:20.481Z,3.60
2023-04-25T22:28:48.329Z,3.00
2023-04-25T22:31:16.138Z,3.03
2023-04-25T22:33:47.257Z,3.50
2023-04-25T22:36:15.174Z,3.10
2023-04-25T22:38:44.011Z,3.47
2023-04-25T22:41:11.854Z,3.20
2023-04-25T22:43:39.751Z,3.20
2023-04-25T22:46:07.755Z,3.70
2023-04-25T22:48:35.489Z,3.30
2023-04-25T22:51:05.215Z,3.60
2023-04-25T22:53:34.795Z,3.30
2023-04-25T22:56:03.073Z,3.57
2023-04-25T22:58:31.374Z,3.33
2023-04-25T23:01:00.835Z,3.67
2023-04-25T23:03:29.014Z,3.80
2023-04-25T23:05:56.834Z,4.00
2023-04-25T23:08:27.532Z,4.07
2023-04-25T23:10:55.670Z,4.30
2023-04-25T23:13:23.613Z,4.53
2023-04-25T23:15:51.822Z,4.10
2023-04-25T23:18:19.848Z,4.00
2023-04-25T23:20:48.249Z,4.00
2023-04-25T23:23:15.995Z,4.10
2023-04-25T23:25:45.969Z,4.20
2023-04-25T23:28:13.708Z,4.60
2023-04-25T23:30:41.567Z,4.10
2023-04-25T23:33:09.332Z,4.00
2023-04-25T23:35:37.292Z,4.10
2023-04-25T23:38:05.077Z,4.40
2023-04-25T23:40:33.195Z,5.27
2023-04-25T23:43:03.580Z,5.20
2023-04-25T23:45:31.430Z,5.47
2023-04-25T23:48:00.861Z,5.37
2023-04-25T23:50:28.667Z,5.30
2023-04-25T23:52:56.455Z,5.70
2023-04-25T23:55:24.447Z,5.33
2023-04-25T23:57:52.325Z,4.93
